Aeroporto :
LOGIN :

Iscrizione | Disclaimer

   EN    FR    IT 

 










Sommario :    VFR   VFR Marginale   IFR   IFR Intensivo   IFR Molto Intensivo
Visibilità : 
Base nubi : 
>= 8 km
>= 3000ft
5 / 8 km
1000 / 3000 ft
1500m / 5 km
500 / 1000 ft
800 / 1500m
200 / 500 ft
< 800m
< 200 ft
Simboli :   Temporali  Nebbia  Neve Forte  Precipitazioni Forti  Vento > 20 kt
SIGMETs :   Varie  Temporali  Ghiacco  Turbolenza  Onda orograficha  Ceneri Vulcaniche






- Altitudine del aeroporto : 26 ft
- Codice IATA : GAE


DTTG - Matmata

ULTIMO METAR :
  • 202200Z 13005KT CAVOK 29/13 Q1011

METARs OBSOLETI :
  • 202100Z 13007KT CAVOK 30/14 Q1011
  • 202000Z 11006KT 8000 NSC 31/15 Q1011
  • 201900Z 10007KT 8000 NSC 33/11 Q1010
  • 201800Z 09009KT 8000 NSC 36/08 Q1010

TAF TAF DTTG
Valido dal 20 a 22 ore il 21 a 07 ore UTC


202100Z 2022/2107 13007KT CAVOK



MetMap, La meteo Aeronautica in un colpo d'occhio ! - Copyright ORBIFLY Dicembre 2007 - Disclaimer

ORBIFLY MET'MAP TEAM :

Programmazione e sviluppo : Alexandra Zaïnal
Concezione : Baudouin d'Aumeries
Supporto tecnico e logistico : Manuel Goepfert
Aiuto : Marc-Olivier Méhu
Aiuto per la traduzione : Arnaldo La Scala




FONTI E CREDITI :

   NOAA